ADDS METAR Data INFO
IDs: Format: Raw Decoded Include TAF

Data at: 1319 UTC 11 Dec 2017

KHQI 111315Z AUTO 28006KT 10SM CLR 17/07 A3034 RMK A01
KHQI 111255Z AUTO 32007KT 10SM CLR 17/07 A3034 RMK A01
KHQI 111235Z AUTO 29006KT 10SM CLR 17/07 A3034 RMK A01
KHQI 111215Z AUTO 29007KT 10SM CLR 17/06 A3034 RMK A01
KHQI 111155Z AUTO 30006KT 10SM CLR 17/07 A3034 RMK A01
KHQI 111135Z AUTO 31007KT 10SM CLR 17/07 A3034 RMK A01
KHQI 111115Z AUTO 29008KT 10SM CLR 17/06 A3033 RMK A01
KHQI 111055Z AUTO 29007KT 10SM CLR 17/06 A3034 RMK A01
KHQI 111035Z AUTO 30008KT 10SM CLR 17/06 A3032 RMK A01
KHQI 111015Z AUTO 31006G11KT 10SM CLR 17/05 A3032 RMK A01
KHQI 110955Z AUTO 30008KT 10SM CLR 17/04 A3032 RMK A01
KHQI 110935Z AUTO 31008KT 10SM CLR 17/05 A3033 RMK A01
KHQI 110915Z AUTO 30007KT 10SM CLR 17/04 A3033 RMK A01
KHQI 110855Z AUTO 30006KT 10SM CLR 17/04 A3033 RMK A01
KHQI 110835Z AUTO 30009KT 10SM CLR 17/05 A3033 RMK A01
KHQI 110815Z AUTO 31006KT 10SM CLR 17/04 A3034 RMK A01
KHQI 110755Z AUTO 33007KT 10SM CLR 17/04 A3034 RMK A01
KHQI 110735Z AUTO 33008KT 10SM CLR 17/05 A3034 RMK A01
KHQI 110715Z AUTO 30007KT 10SM CLR 17/05 A3034 RMK A01
KHQI 110655Z AUTO 31006KT 10SM CLR 17/05 A3034 RMK A01
KHQI 110635Z AUTO 31007KT 10SM CLR 17/05 A3034 RMK A01
KHQI 110615Z AUTO 30006KT 10SM CLR 17/05 A3035 RMK A01
KHQI 110555Z AUTO 29006KT 10SM CLR 17/05 A3035 RMK A01
KHQI 110535Z AUTO 31008KT 10SM CLR 17/05 A3036 RMK A01
KHQI 110515Z AUTO 30005KT 10SM CLR 17/06 A3036 RMK A01
KHQI 110455Z AUTO 31006KT 10SM CLR 17/06 A3036 RMK A01
KHQI 110435Z AUTO 30006KT 10SM CLR 17/07 A3037 RMK A01
KHQI 110415Z AUTO 29008KT 10SM CLR 17/08 A3037 RMK A01
KHQI 110355Z AUTO 27008KT 10SM CLR 17/07 A3037 RMK A01
KHQI 110335Z AUTO 30008KT 10SM CLR 17/08 A3038 RMK A01
KHQI 110315Z AUTO 28008KT 10SM CLR 17/08 A3038 RMK A01
KHQI 110255Z AUTO VRB06KT 10SM CLR 17/07 A3038 RMK A01
KHQI 110235Z AUTO 29008KT 10SM CLR 17/07 A3038 RMK A01
KHQI 110215Z AUTO 27008KT 10SM CLR 17/07 A3038 RMK A01
KHQI 110155Z AUTO 27006KT 10SM CLR 17/06 A3038 RMK A01
KHQI 110135Z AUTO 29008KT 10SM CLR 17/06 A3038 RMK A01
KHQI 110115Z AUTO 27008KT 10SM CLR 17/06 A3038 RMK A01
KHQI 110055Z AUTO 28005KT 10SM CLR 17/06 A3037 RMK A01
KHQI 110035Z AUTO 26005KT 10SM CLR 17/06 A3037 RMK A01
KHQI 110015Z AUTO 31006KT 10SM CLR 17/07 A3037 RMK A01
KHQI 102355Z AUTO 31007G12KT 10SM CLR 17/06 A3037 RMK A01
KHQI 102335Z AUTO VRB06KT 10SM CLR 17/06 A3036 RMK A01
KHQI 102315Z AUTO 30006G13KT 10SM CLR 17/06 A3036 RMK A01
KHQI 102255Z AUTO 29007KT 10SM CLR 18/06 A3036 RMK A01
KHQI 102235Z AUTO 30008KT 10SM CLR 18/06 A3036 RMK A01
KHQI 102215Z AUTO 29005KT 10SM CLR 18/06 A3035 RMK A01
KHQI 102155Z AUTO 27008KT 10SM CLR 18/06 A3036 RMK A01
KHQI 102135Z AUTO 31007KT 10SM CLR 19/06 A3036 RMK A01
KHQI 102115Z AUTO 31004KT 10SM CLR 19/06 A3035 RMK A01
KHQI 102055Z AUTO 26007KT 10SM CLR 19/06 A3035 RMK A01
KHQI 102035Z AUTO 28008KT 10SM CLR 19/06 A3036 RMK A01
KHQI 102015Z AUTO VRB04KT 10SM CLR 19/06 A3036 RMK A01
KHQI 101955Z AUTO 31007KT 10SM CLR 19/06 A3036 RMK A01
KHQI 101935Z AUTO 26004KT 10SM CLR 19/05 A3036 RMK A01
KHQI 101915Z AUTO 32007KT 10SM CLR 19/05 A3036 RMK A01
KHQI 101855Z AUTO 29004KT 10SM CLR 19/05 A3037 RMK A01
KHQI 101835Z AUTO 00000KT 10SM CLR 19/05 A3038 RMK A01
KHQI 101815Z AUTO 00000KT 10SM CLR 19/05 A3039 RMK A01
KHQI 101755Z AUTO 00000KT 10SM CLR 19/05 A3040 RMK A01
KHQI 101735Z AUTO 00000KT 10SM CLR 19/05 A3040 RMK A01
KHQI 101715Z AUTO 00000KT 10SM CLR 19/05 A3041 RMK A01
KHQI 101655Z AUTO 34004KT 10SM CLR 18/04 A3041 RMK A01
KHQI 101635Z AUTO VRB05KT 10SM CLR 18/05 A3041 RMK A01
KHQI 101615Z AUTO 05007KT 10SM CLR 18/05 A3041 RMK A01
KHQI 101555Z AUTO 00000KT 10SM CLR 18/04 A3042 RMK A01
KHQI 101535Z AUTO VRB04KT 10SM CLR 18/05 A3042 RMK A01
KHQI 101515Z AUTO 04004KT 10SM CLR 18/04 A3041 RMK A01
KHQI 101455Z AUTO 03007KT 10SM CLR 18/05 A3041 RMK A01
KHQI 101435Z AUTO 04005G11KT 10SM CLR 17/04 A3040 RMK A01
KHQI 101415Z AUTO 05004KT 10SM CLR 17/04 A3039 RMK A01
KHQI 101355Z AUTO 04007KT 10SM CLR 17/04 A3039 RMK A01
KHQI 101335Z AUTO 36006KT 10SM CLR 17/04 A3038 RMK A01
KHQI 101315Z AUTO 03010KT 10SM CLR 16/04 A3038 RMK A01
KHQI 101255Z AUTO 02008KT 10SM CLR 16/04 A3037 RMK A01
KHQI 101235Z AUTO 03009G16KT 10SM CLR 16/04 A3037 RMK A01
KHQI 101215Z AUTO 02010G15KT 10SM CLR 16/04 A3036 RMK A01
KHQI 101155Z AUTO 02013KT 10SM CLR 16/04 A3035 RMK A01
KHQI 101135Z AUTO 02012KT 10SM CLR 16/04 A3034 RMK A01
KHQI 101115Z AUTO 36009G17KT 10SM CLR 16/03 A3033 RMK A01
KHQI 101055Z AUTO 36013KT 10SM CLR 16/03 A3033 RMK A01
KHQI 101035Z AUTO 36011G16KT 10SM CLR 16/03 A3033 RMK A01
KHQI 101015Z AUTO 35011G17KT 10SM CLR 16/03 A3034 RMK A01
KHQI 100955Z AUTO 34015KT 330V030 10SM CLR 16/04 A3034 RMK A01
KHQI 100935Z AUTO 01013G19KT 10SM CLR 16/04 A3033 RMK A01
KHQI 100915Z AUTO 35012G19KT 10SM CLR 16/04 A3032 RMK A01
KHQI 100855Z AUTO 34016KT 10SM CLR 16/03 A3032 RMK A01
KHQI 100835Z AUTO 36012G18KT 10SM CLR 16/03 A3032 RMK A01
KHQI 100815Z AUTO 35013G18KT 10SM CLR 16/03 A3032 RMK A01
KHQI 100755Z AUTO 36010KT 10SM CLR 16/04 A3033 RMK A01
KHQI 100735Z AUTO 34012KT 10SM CLR 16/04 A3034 RMK A01
KHQI 100715Z AUTO 35009G16KT 10SM CLR 16/04 A3034 RMK A01
KHQI 100655Z AUTO 31009G16KT 10SM CLR 16/04 A3034 RMK A01
KHQI 100635Z AUTO 32011KT 10SM CLR 16/04 A3034 RMK A01
KHQI 100615Z AUTO 35010KT 10SM CLR 16/05 A3033 RMK A01
KHQI 100555Z AUTO 33010G17KT 10SM CLR 16/05 A3033 RMK A01
KHQI 100535Z AUTO 33011G17KT 10SM CLR 16/04 A3033 RMK A01
KHQI 100515Z AUTO 32010G17KT 10SM CLR 16/04 A3033 RMK A01
KHQI 100455Z AUTO 34012KT 10SM CLR 16/04 A3033 RMK A01
KHQI 100435Z AUTO 32011G16KT 10SM CLR 16/04 A3033 RMK A01
KHQI 100415Z AUTO 31014KT 10SM CLR 16/04 A3032 RMK A01
KHQI 100355Z AUTO 32010G16KT 10SM CLR 16/03 A3032 RMK A01
KHQI 100335Z AUTO 32010G16KT 10SM CLR 16/03 A3032 RMK A01
KHQI 100315Z AUTO 33013KT 10SM CLR 16/03 A3032 RMK A01
KHQI 100255Z AUTO 32010G17KT 10SM CLR 16/03 A3030 RMK A01
KHQI 100235Z AUTO 31010G16KT 10SM CLR 16/03 A3030 RMK A01
KHQI 100215Z AUTO 30012G17KT 10SM CLR 16/03 A3029 RMK A01
KHQI 100155Z AUTO 29013KT 10SM CLR 16/02 A3028 RMK A01
KHQI 100135Z AUTO 29011KT 10SM CLR 16/02 A3028 RMK A01